Time;durP1;ratioP1;P1;durP2;ratioP2;P2;SDS_P1;SDS_P2;PMS_P1;PMS_P2;Temp;Humidity;BMP_temperature;BMP_pressure;BME280_temperature;BME280_humidity;BME280_pressure;Samples;Min_cycle;Max_cycle;Signal;HPM_P1;HPM_P2
2021/05/02 00:01:12;;;;;;;14.10;12.00;;;;;;;15.88;72.12;99001.84;1723104;83;21201;-83
2021/05/02 00:03:40;;;;;;;15.43;10.45;;;;;;;15.77;72.38;98999.91;1723164;83;21183;-83
2021/05/02 00:06:08;;;;;;;13.35;11.10;;;;;;;15.74;72.45;98998.39;1723304;83;21325;-83
2021/05/02 00:08:36;;;;;;;17.37;11.78;;;;;;;15.83;72.24;98996.63;1723348;83;21599;-84
2021/05/02 00:11:06;;;;;;;13.28;11.05;;;;;;;15.82;72.23;98983.81;1723103;83;21356;-84
2021/05/02 00:13:36;;;;;;;12.23;10.13;;;;;;;15.69;72.59;98982.05;1723260;83;21655;-84
2021/05/02 00:16:05;;;;;;;13.55;10.53;;;;;;;15.54;73.01;98985.31;1717907;83;21195;-84
2021/05/02 00:18:33;;;;;;;13.60;10.50;;;;;;;15.55;73.00;98972.34;1723184;83;21170;-84
2021/05/02 00:21:00;;;;;;;12.05;10.43;;;;;;;15.62;72.92;98974.37;1723019;83;21170;-85
2021/05/02 00:23:28;;;;;;;13.08;10.05;;;;;;;15.53;73.21;98966.31;1723399;83;21174;-85
2021/05/02 00:25:55;;;;;;;11.40;9.33;;;;;;;15.42;73.56;98963.92;1723209;83;21293;-85
2021/05/02 00:28:23;;;;;;;12.80;10.43;;;;;;;15.40;73.64;98963.27;1696994;83;21179;-85
2021/05/02 00:30:50;;;;;;;12.05;9.95;;;;;;;15.45;73.63;98968.95;1723283;83;21702;-85
2021/05/02 00:33:17;;;;;;;13.93;10.25;;;;;;;15.34;74.15;98966.56;1723229;83;21167;-85
2021/05/02 00:35:45;;;;;;;12.10;9.85;;;;;;;15.15;74.63;98962.28;1723182;83;21312;-83
2021/05/02 00:38:12;;;;;;;11.83;9.15;;;;;;;15.15;74.74;98953.78;1723597;83;21564;-83
2021/05/02 00:40:41;;;;;;;12.65;9.53;;;;;;;15.18;74.91;98949.49;1723606;83;21312;-84
2021/05/02 00:43:15;;;;;;;9.55;8.38;;;;;;;15.07;75.08;98955.08;1723168;83;21159;-84
2021/05/02 00:46:12;;;;;;;11.35;8.43;;;;;;;15.06;75.26;98945.41;1723213;83;21325;-83
2021/05/02 00:49:18;;;;;;;10.93;8.85;;;;;;;15.14;75.08;98941.48;1723378;83;21309;-83
2021/05/02 00:51:49;;;;;;;13.83;8.55;;;;;;;15.06;75.26;98932.95;1724000;83;21623;-83
2021/05/02 00:54:19;;;;;;;10.75;8.98;;;;;;;14.96;75.77;98944.20;1724942;83;21195;-82
2021/05/02 00:56:55;;;;;;;11.12;8.93;;;;;;;14.94;75.72;98935.52;1724643;83;21188;-83
2021/05/02 00:59:45;;;;;;;9.95;8.95;;;;;;;14.93;75.82;98942.34;1723466;83;21167;-83
2021/05/02 01:02:16;;;;;;;11.38;10.13;;;;;;;14.85;76.01;98938.62;1723398;83;21135;-83
2021/05/02 01:04:45;;;;;;;12.03;9.15;;;;;;;14.79;76.14;98931.76;1723225;83;21139;-83
2021/05/02 01:07:20;;;;;;;11.63;8.93;;;;;;;14.88;75.96;98931.64;1723149;83;21694;-83
2021/05/02 01:09:47;;;;;;;10.45;8.85;;;;;;;14.82;75.96;98925.63;1723596;83;21595;-83
2021/05/02 01:12:18;;;;;;;10.43;8.68;;;;;;;14.72;76.30;98939.53;1723093;83;21175;-83
2021/05/02 01:14:49;;;;;;;12.33;9.00;;;;;;;14.65;76.53;98935.81;1711484;83;21184;-83
2021/05/02 01:17:16;;;;;;;10.28;8.85;;;;;;;14.66;76.47;98934.83;1709538;84;21352;-83
2021/05/02 01:19:48;;;;;;;9.25;8.15;;;;;;;14.64;76.54;98927.45;1709689;83;21310;-83
2021/05/02 01:22:18;;;;;;;9.68;7.22;;;;;;;14.59;76.78;98935.88;1709585;84;21270;-83
2021/05/02 01:24:51;;;;;;;9.73;7.72;;;;;;;14.58;76.88;98932.91;1709605;84;21167;-83
2021/05/02 01:27:29;;;;;;;10.55;8.28;;;;;;;14.67;76.69;98923.20;1709637;84;21293;-83
2021/05/02 01:29:58;;;;;;;12.07;8.68;;;;;;;14.73;76.57;98927.88;1699071;84;21160;-83
2021/05/02 01:32:27;;;;;;;8.35;7.22;;;;;;;14.67;76.64;98927.19;1709526;83;21135;-83
2021/05/02 01:34:54;;;;;;;7.62;6.72;;;;;;;14.65;76.69;98933.15;1709617;84;21163;-83
2021/05/02 01:37:22;;;;;;;8.78;7.15;;;;;;;14.70;76.55;98922.37;1709840;84;21604;-83
2021/05/02 01:39:49;;;;;;;8.13;7.05;;;;;;;14.78;76.36;98920.27;1709788;83;21168;-83
2021/05/02 01:42:17;;;;;;;9.08;7.47;;;;;;;14.76;76.38;98920.93;1709848;84;21159;-83
2021/05/02 01:44:44;;;;;;;8.25;6.05;;;;;;;14.72;76.53;98919.58;1710025;84;21135;-83
2021/05/02 01:47:17;;;;;;;8.88;7.25;;;;;;;14.75;76.69;98916.59;1710008;84;21317;-82
2021/05/02 01:49:52;;;;;;;;;;;;;;;14.82;76.42;98911.00;1712779;83;21128;-83
2021/05/02 01:52:19;;;;;;;7.65;6.00;;;;;;;14.78;76.43;98912.27;1710182;83;20267;-83
2021/05/02 01:54:46;;;;;;;8.28;6.22;;;;;;;14.67;76.69;98908.56;1709940;84;21138;-83
2021/05/02 01:57:24;;;;;;;7.90;6.42;;;;;;;14.67;76.68;98913.88;1709868;84;21201;-83
2021/05/02 01:59:53;;;;;;;7.67;6.87;;;;;;;14.79;76.43;98908.63;1709930;84;21112;-83
2021/05/02 02:02:20;;;;;;;8.78;6.22;;;;;;;14.75;76.48;98905.44;1710018;84;21636;-83
2021/05/02 02:04:51;;;;;;;8.28;6.28;;;;;;;14.66;76.67;98901.56;1690424;84;21184;-83
2021/05/02 02:07:18;;;;;;;6.08;5.28;;;;;;;14.69;76.63;98899.91;1710507;83;21381;-83
2021/05/02 02:09:46;;;;;;;7.28;5.97;;;;;;;14.78;76.50;98890.98;1711117;84;21317;-84
2021/05/02 02:12:14;;;;;;;10.20;6.55;;;;;;;14.76;76.49;98890.32;1710315;83;21676;-84
2021/05/02 02:14:42;;;;;;;7.55;5.85;;;;;;;14.72;76.63;98898.28;1710077;83;21207;-83
2021/05/02 02:17:09;;;;;;;8.43;5.85;;;;;;;14.78;76.45;98892.31;1709967;83;21280;-83
2021/05/02 02:19:39;;;;;;;6.45;5.42;;;;;;;14.84;76.37;98889.03;1709845;84;21156;-84
2021/05/02 02:22:06;;;;;;;7.55;6.10;;;;;;;14.78;76.48;98886.98;1709694;83;21313;-84
2021/05/02 02:24:53;;;;;;;6.22;5.25;;;;;;;14.72;76.70;98891.13;1709878;84;22211;-84
2021/05/02 02:27:20;;;;;;;7.83;5.58;;;;;;;14.79;76.53;98884.67;1709804;84;21278;-84
2021/05/02 02:29:48;;;;;;;8.45;6.05;;;;;;;14.85;76.42;98893.38;1710081;84;21167;-84
2021/05/02 02:32:17;;;;;;;9.55;5.87;;;;;;;14.81;76.48;98889.36;1709685;84;21171;-84
2021/05/02 02:34:47;;;;;;;6.97;5.90;;;;;;;14.78;76.51;98886.17;1709724;84;21196;-84
2021/05/02 02:37:18;;;;;;;8.65;5.83;;;;;;;14.87;76.25;98880.75;1709729;84;21743;-83
2021/05/02 02:39:49;;;;;;;9.03;5.90;;;;;;;14.90;76.12;98883.09;1708747;84;21112;-82
2021/05/02 02:42:17;;;;;;;7.17;5.22;;;;;;;14.80;76.26;98879.70;1709770;84;21628;-83
2021/05/02 02:44:50;;;;;;;7.83;5.12;;;;;;;14.78;76.40;98876.34;1709852;84;21207;-83
2021/05/02 02:47:20;;;;;;;7.47;4.95;;;;;;;14.82;76.22;98864.41;1709729;82;21119;-83
2021/05/02 02:49:54;;;;;;;6.92;5.50;;;;;;;14.75;76.38;98860.70;1709780;84;21123;-83
2021/05/02 02:52:24;;;;;;;6.65;5.10;;;;;;;14.65;76.70;98865.30;1706727;84;21635;-83
2021/05/02 02:55:08;;;;;;;7.22;5.20;;;;;;;14.72;76.56;98869.02;1709736;84;21727;-82
2021/05/02 02:58:00;;;;;;;8.13;5.67;;;;;;;14.79;76.47;98865.22;1757106;79;22717;-77
2021/05/02 03:00:31;;;;;;;8.08;4.97;;;;;;;14.67;76.67;98871.30;1752734;81;21313;-77
2021/05/02 03:03:14;;;;;;;7.33;5.30;;;;;;;14.67;76.67;98868.14;1752999;82;21253;-77
2021/05/02 03:05:43;;;;;;;7.92;5.60;;;;;;;14.77;76.42;98874.70;1725591;82;21285;-78
2021/05/02 03:08:10;;;;;;;8.00;5.03;;;;;;;14.75;76.56;98881.99;1704118;82;21154;-77
2021/05/02 03:10:40;;;;;;;8.20;5.50;;;;;;;14.73;76.62;98881.30;1752927;82;21155;-79
2021/05/02 03:13:07;;;;;;;9.20;5.33;;;;;;;14.84;76.39;98880.22;1753070;81;21706;-77
2021/05/02 03:15:37;;;;;;;7.53;5.55;;;;;;;14.83;76.41;98881.21;1723983;82;21163;-77
2021/05/02 03:18:09;;;;;;;6.80;5.33;;;;;;;14.74;76.71;98874.52;1694704;83;21559;-77
2021/05/02 03:20:38;;;;;;;7.58;5.70;;;;;;;14.79;76.68;98878.02;1723410;83;21194;-76
2021/05/02 03:23:14;;;;;;;7.85;5.53;;;;;;;14.80;76.68;98874.38;1723352;83;21151;-76
2021/05/02 03:25:44;;;;;;;7.72;5.37;;;;;;;14.74;76.90;98880.31;1723396;83;21158;-77
2021/05/02 03:28:14;;;;;;;6.90;6.00;;;;;;;14.74;77.03;98886.49;1711741;83;21183;-77
2021/05/02 03:30:42;;;;;;;8.33;5.65;;;;;;;14.85;76.80;98881.39;1684773;84;21218;-78
2021/05/02 03:33:12;;;;;;;7.20;5.37;;;;;;;14.85;76.85;98882.72;1711227;83;21194;-77
2021/05/02 03:35:44;;;;;;;8.40;5.30;;;;;;;14.85;76.95;98878.73;1723132;83;21352;-77
2021/05/02 03:38:46;;;;;;;8.00;5.83;;;;;;;14.97;76.69;98876.62;1701697;83;21139;-78
2021/05/02 03:41:14;;;;;;;7.10;5.65;;;;;;;15.02;76.59;98878.83;1702757;83;21406;-78
2021/05/02 03:43:42;;;;;;;7.30;5.40;;;;;;;14.97;76.65;98879.80;1696580;83;21304;-78
2021/05/02 03:46:23;;;;;;;7.25;5.62;;;;;;;15.03;76.53;98879.99;1694162;84;21183;-77
2021/05/02 03:48:39;;;;;;;7.58;6.22;;;;;;;15.13;76.29;98885.69;1691862;85;21206;-77
2021/05/02 03:51:06;;;;;;;8.55;5.90;;;;;;;15.09;76.29;98887.87;1699381;83;21142;-77
2021/05/02 03:53:33;;;;;;;7.87;6.10;;;;;;;15.11;76.27;98889.86;1723174;83;21463;-77
2021/05/02 03:56:00;;;;;;;8.18;5.60;;;;;;;15.24;75.97;98891.60;1720046;83;21611;-78
2021/05/02 03:58:28;;;;;;;8.30;5.95;;;;;;;15.27;75.91;98893.59;1719063;83;21134;-77
2021/05/02 04:00:55;;;;;;;7.33;5.15;;;;;;;15.22;76.07;98890.09;1721582;83;21182;-78
2021/05/02 04:03:22;;;;;;;7.53;5.62;;;;;;;15.24;76.05;98890.27;1711134;83;21264;-77
2021/05/02 04:05:49;;;;;;;7.78;5.92;;;;;;;15.33;75.81;98882.30;1695296;85;21158;-78
2021/05/02 04:08:16;;;;;;;16.42;12.88;;;;;;;15.32;75.90;98889.95;1706902;83;21562;-78
2021/05/02 04:10:44;;;;;;;10.85;8.23;;;;;;;15.28;75.93;98880.14;1705502;83;21127;-78
2021/05/02 04:13:11;;;;;;;6.40;5.30;;;;;;;15.39;75.79;98873.67;1694544;83;21170;-78
2021/05/02 04:15:38;;;;;;;7.45;5.58;;;;;;;15.49;75.39;98863.72;1701158;83;21305;-78
2021/05/02 04:18:05;;;;;;;8.48;5.75;;;;;;;15.49;75.34;98863.72;1698187;83;21208;-78
2021/05/02 04:20:32;;;;;;;6.45;5.05;;;;;;;15.48;75.34;98859.38;1723347;83;21324;-77
2021/05/02 04:23:00;;;;;;;7.70;5.35;;;;;;;15.62;75.13;98865.92;1719658;83;21170;-77
2021/05/02 04:25:27;;;;;;;7.75;5.28;;;;;;;15.73;74.88;98867.47;1704508;83;21323;-77
2021/05/02 04:27:54;;;;;;;9.05;6.58;;;;;;;15.74;74.80;98867.78;1709034;83;21174;-77
2021/05/02 04:30:22;;;;;;;27.27;20.55;;;;;;;15.72;74.72;98863.95;1696100;83;21645;-77
2021/05/02 04:32:49;;;;;;;6.67;4.55;;;;;;;15.82;74.57;98857.19;1715419;83;21623;-77
2021/05/02 04:35:16;;;;;;;8.53;5.58;;;;;;;15.91;74.31;98850.03;1707191;83;21151;-77
2021/05/02 04:37:44;;;;;;;6.72;4.75;;;;;;;15.87;74.19;98854.03;1694384;85;21336;-78
2021/05/02 04:40:13;;;;;;;5.53;4.40;;;;;;;15.80;74.37;98853.80;1694273;85;21135;-78
2021/05/02 04:42:40;;;;;;;6.42;4.60;;;;;;;15.89;74.23;98861.35;1694583;85;21155;-78
2021/05/02 04:45:10;;;;;;;6.70;4.50;;;;;;;15.93;73.98;98849.86;1694632;85;21285;-78
2021/05/02 04:47:37;;;;;;;6.17;5.00;;;;;;;15.87;74.13;98856.19;1694607;85;21183;-77
2021/05/02 04:50:06;;;;;;;7.60;4.60;;;;;;;15.81;74.25;98860.84;1694339;85;21183;-78
2021/05/02 04:52:34;;;;;;;5.70;4.58;;;;;;;15.96;74.24;98862.86;1694591;85;21914;-78
2021/05/02 04:55:01;;;;;;;7.70;5.05;;;;;;;16.07;73.96;98869.20;1694329;85;21210;-78
2021/05/02 04:57:31;;;;;;;7.17;4.58;;;;;;;16.06;73.83;98871.53;1707620;83;21162;-77
2021/05/02 04:59:59;;;;;;;5.53;4.72;;;;;;;16.05;73.74;98860.05;1705248;83;21289;-77
2021/05/02 05:02:26;;;;;;;7.03;5.08;;;;;;;16.17;73.48;98859.21;1723176;83;21174;-78
2021/05/02 05:04:53;;;;;;;7.08;5.08;;;;;;;16.15;73.71;98856.38;1723522;83;21596;-78
2021/05/02 05:07:20;;;;;;;6.92;5.10;;;;;;;16.13;73.69;98855.22;1723172;83;21300;-78
2021/05/02 05:09:47;;;;;;;6.60;5.08;;;;;;;16.23;73.46;98855.06;1723237;83;21198;-79
2021/05/02 05:12:14;;;;;;;7.65;5.12;;;;;;;16.30;73.15;98860.56;1723329;83;21341;-78
2021/05/02 05:14:41;;;;;;;5.50;4.72;;;;;;;16.29;73.20;98854.88;1723213;83;21127;-79
2021/05/02 05:17:09;;;;;;;7.80;4.90;;;;;;;16.28;73.25;98858.55;1712474;83;21320;-77
2021/05/02 05:19:38;;;;;;;7.33;5.30;;;;;;;16.42;73.19;98861.05;1694485;85;21206;-77
2021/05/02 05:22:07;;;;;;;7.97;5.80;;;;;;;16.52;72.71;98873.23;1695075;83;21177;-78
2021/05/02 05:24:37;;;;;;;7.08;5.37;;;;;;;16.44;72.69;98861.22;1695058;83;21190;-78
2021/05/02 05:29:48;;;;;;;7.83;5.12;;;;;;;16.49;72.98;98859.39;1817716;79;23144;-78
2021/05/02 05:32:15;;;;;;;5.85;5.08;;;;;;;16.52;72.86;98861.23;1783240;80;21529;-79
2021/05/02 05:34:43;;;;;;;7.70;5.20;;;;;;;16.53;72.85;98864.23;1760218;81;21297;-76
2021/05/02 05:37:12;;;;;;;7.75;5.00;;;;;;;16.53;72.83;98850.89;1772931;80;21611;-76
2021/05/02 05:39:41;;;;;;;7.83;5.30;;;;;;;16.67;72.59;98856.02;1785877;80;21142;-75
2021/05/02 05:42:09;;;;;;;8.38;5.10;;;;;;;16.76;72.54;98856.02;1792705;80;21325;-75
2021/05/02 05:44:37;;;;;;;9.75;5.10;;;;;;;16.77;72.55;98845.16;1792539;80;21777;-75
2021/05/02 05:47:04;;;;;;;8.25;5.20;;;;;;;16.80;72.59;98848.84;1792613;80;21180;-76
2021/05/02 05:49:34;;;;;;;8.25;5.33;;;;;;;16.97;72.19;98852.81;1792498;80;21191;-76
2021/05/02 05:52:01;;;;;;;8.08;5.10;;;;;;;17.11;71.84;98845.92;1792769;80;21150;-76
2021/05/02 05:54:29;;;;;;;8.55;5.40;;;;;;;17.13;71.74;98843.41;1792574;80;21151;-76
2021/05/02 05:56:56;;;;;;;8.40;4.83;;;;;;;17.12;71.52;98845.78;1792480;80;21309;-76
2021/05/02 05:59:24;;;;;;;8.90;5.78;;;;;;;17.22;71.30;98839.39;1792621;80;21131;-76
2021/05/02 06:01:53;;;;;;;7.15;5.30;;;;;;;17.35;71.30;98840.99;1792619;80;21289;-75
2021/05/02 06:04:21;;;;;;;9.20;5.67;;;;;;;17.39;70.79;98834.28;1792808;80;21552;-75
2021/05/02 06:06:48;;;;;;;7.33;5.10;;;;;;;17.35;70.49;98826.30;1792528;80;21147;-74
2021/05/02 06:09:16;;;;;;;8.33;5.20;;;;;;;17.41;70.43;98825.59;1792665;80;21316;-74
2021/05/02 06:11:45;;;;;;;10.32;6.30;;;;;;;17.51;70.22;98825.39;1792771;80;21182;-74
2021/05/02 06:14:12;;;;;;;9.88;5.85;;;;;;;17.48;69.87;98829.25;1792724;80;21535;-75
2021/05/02 06:16:41;;;;;;;7.17;5.10;;;;;;;17.43;70.07;98828.94;1792341;80;21178;-75
2021/05/02 06:19:08;;;;;;;9.95;5.85;;;;;;;17.53;70.10;98820.69;1792566;80;21328;-75
2021/05/02 06:21:37;;;;;;;7.22;5.53;;;;;;;17.66;69.49;98813.42;1782553;80;21582;-75
2021/05/02 06:24:06;;;;;;;10.48;5.80;;;;;;;17.63;69.04;98809.78;1761156;81;21130;-74
2021/05/02 06:26:33;;;;;;;7.90;5.60;;;;;;;17.60;69.15;98812.81;1775129;80;21174;-75
2021/05/02 06:29:02;;;;;;;8.60;6.03;;;;;;;17.63;69.23;98815.12;1744750;81;21155;-76
2021/05/02 06:31:29;;;;;;;9.88;6.25;;;;;;;17.72;68.50;98810.56;1772248;80;21293;-74
2021/05/02 06:33:58;;;;;;;7.58;5.78;;;;;;;17.68;68.73;98823.45;1785816;80;21195;-75
2021/05/02 06:36:26;;;;;;;7.22;5.17;;;;;;;17.62;69.19;98818.80;1786839;80;21146;-75
2021/05/02 06:38:54;;;;;;;8.15;5.92;;;;;;;17.63;69.38;98820.47;1785168;80;21186;-75
2021/05/02 06:41:21;;;;;;;11.22;6.40;;;;;;;17.75;68.82;98815.05;1778692;80;21174;-74
2021/05/02 06:43:49;;;;;;;10.75;6.15;;;;;;;17.74;68.83;98814.72;1782696;80;21131;-74
2021/05/02 06:46:30;;;;;;;9.13;6.30;;;;;;;17.71;69.00;98819.09;1775513;80;21167;-75
2021/05/02 06:49:02;;;;;;;8.93;6.17;;;;;;;17.67;68.99;98828.46;1755498;82;21194;-75
2021/05/02 06:51:30;;;;;;;11.20;6.92;;;;;;;17.75;68.93;98837.78;1755342;80;21159;-76
2021/05/02 06:53:57;;;;;;;12.40;7.15;;;;;;;17.80;69.06;98846.11;1761186;80;21612;-75
2021/05/02 06:56:26;;;;;;;12.33;6.97;;;;;;;17.79;68.88;98867.17;1761184;80;21180;-75
2021/05/02 06:58:54;;;;;;;9.10;7.00;;;;;;;17.75;69.02;98883.73;1751306;80;21160;-76
2021/05/02 07:01:22;;;;;;;12.58;6.90;;;;;;;17.80;69.03;98881.36;1753697;80;21147;-75
2021/05/02 07:03:51;;;;;;;11.33;6.85;;;;;;;17.74;68.96;98863.38;1767155;80;21297;-75
2021/05/02 07:06:20;;;;;;;9.93;6.42;;;;;;;17.65;69.12;98848.70;1746337;80;21603;-75
2021/05/02 07:08:48;;;;;;;9.45;6.70;;;;;;;17.65;69.26;98857.23;1759736;80;21143;-75
2021/05/02 07:11:15;;;;;;;11.40;7.28;;;;;;;17.76;68.75;98858.66;1773574;80;21139;-76
2021/05/02 07:13:42;;;;;;;10.05;7.10;;;;;;;17.73;68.78;98861.18;1765150;80;21210;-76
2021/05/02 07:16:10;;;;;;;13.15;6.78;;;;;;;17.64;69.15;98860.39;1762993;80;21127;-76
2021/05/02 07:18:40;;;;;;;10.40;7.42;;;;;;;17.68;69.00;98857.69;1781001;80;21154;-76
2021/05/02 07:21:07;;;;;;;9.78;7.47;;;;;;;17.73;68.66;98851.83;1780956;80;21122;-76
2021/05/02 07:23:39;;;;;;;10.18;6.83;;;;;;;17.67;68.79;98857.87;1762412;80;21143;-76
2021/05/02 07:26:06;;;;;;;10.30;7.65;;;;;;;17.68;69.13;98863.55;1749237;82;21216;-76
2021/05/02 07:28:33;;;;;;;10.38;7.62;;;;;;;17.78;69.07;98864.16;1766803;80;21198;-76
2021/05/02 07:31:01;;;;;;;11.97;8.25;;;;;;;17.76;68.83;98852.83;1752858;82;21321;-77
2021/05/02 07:33:29;;;;;;;12.78;8.43;;;;;;;17.74;68.88;98846.81;1717127;83;21188;-76
2021/05/02 07:35:56;;;;;;;13.25;8.03;;;;;;;17.80;68.73;98833.22;1692176;83;21197;-76
2021/05/02 07:38:24;;;;;;;11.85;8.65;;;;;;;17.91;68.34;98834.16;1722601;82;21143;-75
2021/05/02 07:40:51;;;;;;;13.18;9.15;;;;;;;17.88;68.29;98843.89;1709599;83;21309;-76
2021/05/02 07:43:19;;;;;;;14.03;9.00;;;;;;;17.85;68.45;98837.05;1752917;82;21315;-76
2021/05/02 07:45:47;;;;;;;17.00;10.63;;;;;;;17.94;67.96;98839.69;1753091;82;21708;-76
2021/05/02 07:48:14;;;;;;;14.23;9.45;;;;;;;17.98;68.00;98839.65;1758462;80;21187;-75
2021/05/02 07:50:43;;;;;;;14.90;8.85;;;;;;;17.95;68.37;98844.03;1769890;80;21163;-75
2021/05/02 07:53:10;;;;;;;13.13;9.20;;;;;;;17.97;68.35;98831.33;1786903;80;21293;-76
2021/05/02 07:55:38;;;;;;;14.33;9.53;;;;;;;18.17;67.84;98845.03;1754292;80;21147;-76
2021/05/02 07:58:05;;;;;;;13.28;9.80;;;;;;;18.14;67.50;98838.19;1731959;83;21211;-76
2021/05/02 08:00:32;;;;;;;12.85;9.58;;;;;;;18.06;67.63;98830.76;1735305;80;21159;-76
2021/05/02 08:02:59;;;;;;;15.90;9.60;;;;;;;18.06;67.52;98832.92;1753637;80;21123;-75
2021/05/02 08:05:27;;;;;;;16.17;9.78;;;;;;;18.08;67.34;98834.92;1773680;80;21596;-75
2021/05/02 08:07:54;;;;;;;15.40;10.35;;;;;;;18.01;67.64;98836.12;1746620;82;21297;-76
2021/05/02 08:10:22;;;;;;;16.15;10.85;;;;;;;17.93;67.96;98829.95;1744346;82;21179;-76
2021/05/02 08:12:56;;;;;;;18.30;11.70;;;;;;;17.96;67.70;98833.66;1731999;82;21165;-76
2021/05/02 08:15:23;;;;;;;23.98;12.45;;;;;;;17.90;67.90;98822.30;1686836;85;21181;-76
2021/05/02 08:17:50;;;;;;;14.93;10.68;;;;;;;17.78;68.15;98821.89;1691805;85;21301;-76
2021/05/02 08:20:17;;;;;;;17.73;11.85;;;;;;;17.77;68.47;98825.05;1777551;80;21290;-76
2021/05/02 08:22:45;;;;;;;22.82;13.62;;;;;;;17.91;68.20;98819.44;1783674;80;21174;-75
2021/05/02 08:25:12;;;;;;;19.10;13.78;;;;;;;17.92;68.20;98807.74;1783770;80;21289;-75
2021/05/02 08:27:39;;;;;;;18.05;12.45;;;;;;;17.93;68.13;98809.45;1783987;80;21165;-75
2021/05/02 08:30:09;;;;;;;18.95;13.13;;;;;;;17.97;67.88;98816.61;1770039;80;21169;-76
2021/05/02 08:32:38;;;;;;;18.67;13.20;;;;;;;18.08;67.73;98806.83;1755405;82;21155;-76
2021/05/02 08:35:08;;;;;;;19.50;14.30;;;;;;;18.09;67.80;98810.33;1759897;80;21147;-76
2021/05/02 08:37:35;;;;;;;23.65;14.15;;;;;;;18.06;67.57;98811.52;1755472;82;21178;-76
2021/05/02 08:40:05;;;;;;;16.60;12.73;;;;;;;17.98;67.51;98803.05;1755575;82;21211;-76
2021/05/02 08:42:32;;;;;;;17.52;12.82;;;;;;;18.07;67.58;98805.16;1755863;82;21174;-76
2021/05/02 08:45:00;;;;;;;20.00;14.00;;;;;;;18.11;67.58;98803.78;1759933;80;21126;-76
2021/05/02 08:47:34;;;;;;;22.67;16.48;;;;;;;18.06;67.51;98796.80;1783214;80;21642;-78
2021/05/02 08:49:57;;;;;;;16.62;12.98;;;;;;;18.02;67.55;98790.16;1754443;82;21330;-75
2021/05/02 08:52:24;;;;;;;17.20;12.07;;;;;;;18.08;67.42;98781.41;1756110;81;21626;-75
2021/05/02 08:54:51;;;;;;;17.42;12.73;;;;;;;18.10;67.46;98774.02;1756146;80;21206;-75
2021/05/02 08:57:19;;;;;;;19.20;12.47;;;;;;;18.08;67.53;98769.86;1755552;82;21317;-76
2021/05/02 08:59:46;;;;;;;17.62;11.35;;;;;;;18.06;67.63;98774.06;1756115;80;21687;-75
2021/05/02 09:02:25;;;;;;;21.00;13.80;;;;;;;18.17;67.31;98762.93;1760435;80;21163;-76
2021/05/02 09:04:59;;;;;;;21.40;13.25;;;;;;;18.22;67.18;98762.88;1765059;80;21334;-75
2021/05/02 09:07:26;;;;;;;22.73;13.05;;;;;;;18.21;67.23;98763.41;1755344;82;21144;-75
2021/05/02 09:09:54;;;;;;;19.35;12.37;;;;;;;18.19;67.25;98765.42;1755830;82;21183;-75
2021/05/02 09:12:24;;;;;;;15.28;10.82;;;;;;;18.22;67.29;98753.52;1755608;82;21186;-75
2021/05/02 09:14:53;;;;;;;19.32;11.97;;;;;;;18.37;66.99;98754.37;1755354;81;21175;-76
2021/05/02 09:17:32;;;;;;;18.60;12.40;;;;;;;18.41;66.74;98758.86;1755433;82;21158;-75
2021/05/02 09:20:01;;;;;;;19.98;12.60;;;;;;;18.40;66.50;98760.72;1753916;82;21797;-76
2021/05/02 09:22:27;;;;;;;18.55;13.40;;;;;;;18.39;66.60;98752.35;1748935;82;21186;-76
2021/05/02 09:25:00;;;;;;;15.43;11.30;;;;;;;18.38;66.49;98752.55;1749231;82;21615;-76
2021/05/02 09:27:28;;;;;;;15.70;11.33;;;;;;;18.41;66.51;98757.00;1749172;82;21143;-76
2021/05/02 09:29:57;;;;;;;17.90;12.30;;;;;;;18.50;66.19;98758.59;1744539;82;21248;-76
2021/05/02 09:32:30;;;;;;;18.27;13.05;;;;;;;18.40;66.40;98755.84;1697222;82;21124;-76
2021/05/02 09:34:57;;;;;;;18.87;14.15;;;;;;;18.34;66.48;98757.42;1738926;82;21176;-76
2021/05/02 09:37:34;;;;;;;17.60;12.60;;;;;;;18.30;66.59;98753.42;1740979;82;21195;-76
2021/05/02 09:40:02;;;;;;;20.02;14.35;;;;;;;18.31;66.63;98752.42;1738632;82;21157;-76
2021/05/02 09:42:39;;;;;;;18.85;13.08;;;;;;;18.40;66.47;98743.80;1762258;81;21148;-76
2021/05/02 09:45:11;;;;;;;19.02;13.20;;;;;;;18.45;66.75;98748.95;1747653;82;21683;-76
2021/05/02 09:47:41;;;;;;;20.43;13.98;;;;;;;18.38;66.63;98748.01;1747511;82;21182;-76
2021/05/02 09:50:17;;;;;;;21.82;14.55;;;;;;;18.25;66.98;98746.45;1747896;81;21628;-74
2021/05/02 09:53:01;;;;;;;24.23;18.48;;;;;;;18.12;67.60;98737.23;1686243;84;21145;-77
2021/05/02 09:55:36;;;;;;;23.75;18.42;;;;;;;18.15;67.60;98723.47;1769817;80;21187;-75
2021/05/02 09:58:16;;;;;;;20.85;13.88;;;;;;;18.31;67.34;98714.95;1734324;82;21176;-75
2021/05/02 10:00:53;;;;;;;17.62;13.58;;;;;;;18.30;67.50;98718.63;1754692;81;21309;-76
2021/05/02 10:03:24;;;;;;;18.12;14.28;;;;;;;18.21;67.70;98717.91;1747575;82;21685;-76
2021/05/02 10:06:03;;;;;;;17.12;14.60;;;;;;;18.12;68.00;98725.19;1747590;82;21509;-76
2021/05/02 10:08:35;;;;;;;19.37;13.78;;;;;;;18.08;68.82;98739.95;1747777;82;21613;-76
2021/05/02 10:11:08;;;;;;;28.13;20.03;;;;;;;18.09;68.83;98746.12;1748446;81;21170;-76
2021/05/02 10:13:39;;;;;;;21.13;14.50;;;;;;;17.97;69.18;98749.73;1748049;82;21276;-76
2021/05/02 10:16:07;;;;;;;19.55;14.35;;;;;;;17.84;69.71;98753.81;1747648;82;21301;-75
2021/05/02 10:18:36;;;;;;;21.97;13.13;;;;;;;17.69;70.15;98757.75;1747634;82;21160;-75
2021/05/02 10:21:05;;;;;;;23.40;15.78;;;;;;;17.59;70.98;98760.35;1747797;81;21168;-75
2021/05/02 10:23:35;;;;;;;18.67;13.90;;;;;;;17.43;71.30;98752.77;1762101;81;21309;-75
2021/05/02 10:26:05;;;;;;;18.07;14.15;;;;;;;17.32;72.04;98754.50;1727122;82;22220;-77
2021/05/02 10:28:34;;;;;;;16.97;12.65;;;;;;;17.24;72.56;98761.22;1748211;80;21336;-76
2021/05/02 10:31:06;;;;;;;21.57;15.72;;;;;;;17.26;72.98;98769.38;1752503;82;21155;-75
2021/05/02 10:33:43;;;;;;;18.90;13.13;;;;;;;17.27;72.88;98767.56;1768775;80;21626;-77
2021/05/02 10:36:23;;;;;;;22.25;14.85;;;;;;;17.27;73.20;98775.06;1761747;80;21143;-76
2021/05/02 10:38:56;;;;;;;19.70;15.35;;;;;;;17.29;73.10;98768.20;1719574;82;21179;-76
2021/05/02 10:41:38;;;;;;;22.43;14.80;;;;;;;17.41;72.83;98770.81;1776974;80;21123;-77
2021/05/02 10:44:14;;;;;;;19.95;15.18;;;;;;;17.37;73.04;98766.83;1753309;82;21159;-76
2021/05/02 10:46:53;;;;;;;20.97;15.95;;;;;;;17.43;73.36;98761.27;1753279;82;21611;-77
2021/05/02 10:49:27;;;;;;;20.52;15.25;;;;;;;17.61;73.41;98759.65;1753121;82;21194;-77
2021/05/02 10:51:57;;;;;;;20.50;14.07;;;;;;;17.55;73.06;98753.70;1755102;80;21142;-76
2021/05/02 10:54:42;;;;;;;22.67;14.95;;;;;;;17.49;73.89;98749.40;1753203;82;21159;-76
2021/05/02 10:57:35;;;;;;;19.15;14.98;;;;;;;17.61;73.73;98740.94;1753754;80;21164;-76
2021/05/02 11:00:10;;;;;;;15.43;12.28;;;;;;;17.65;74.09;98730.23;1758130;80;21568;-74
2021/05/02 11:02:40;;;;;;;25.23;15.13;;;;;;;17.66;74.26;98734.06;1774826;80;21268;-76
2021/05/02 11:05:12;;;;;;;20.08;14.90;;;;;;;17.80;74.14;98734.28;1776409;80;21157;-75
2021/05/02 11:07:43;;;;;;;20.60;14.38;;;;;;;17.84;73.98;98728.41;1744324;82;21212;-75
2021/05/02 11:10:14;;;;;;;17.02;12.45;;;;;;;17.84;72.95;98728.92;1783957;80;21175;-75
2021/05/02 11:12:42;;;;;;;17.20;11.97;;;;;;;17.77;72.92;98726.11;1744080;82;21232;-75
2021/05/02 11:15:32;;;;;;;19.27;14.03;;;;;;;17.85;73.04;98727.40;1744355;82;21675;-75
2021/05/02 11:18:01;;;;;;;18.57;13.62;;;;;;;17.84;72.43;98733.75;1773347;80;21151;-75
2021/05/02 11:20:51;;;;;;;21.15;15.58;;;;;;;17.69;72.88;98732.36;1752938;82;21199;-75
2021/05/02 11:23:40;;;;;;;20.92;16.05;;;;;;;17.69;72.70;98721.66;1753671;80;21194;-76
2021/05/02 11:26:09;;;;;;;27.30;18.77;;;;;;;17.65;72.99;98726.23;1776702;80;21785;-75
2021/05/02 11:31:43;;;;;;;23.30;18.45;;;;;;;17.63;73.51;98716.20;1811469;79;23603;-74
2021/05/02 11:34:10;;;;;;;24.07;16.75;;;;;;;17.53;73.61;98713.27;1776625;80;21175;-77
2021/05/02 11:36:42;;;;;;;25.10;17.92;;;;;;;17.47;73.63;98713.98;1776834;80;21618;-74
2021/05/02 11:39:33;;;;;;;20.48;14.07;;;;;;;17.46;73.47;98701.62;1787433;80;21171;-75
2021/05/02 11:42:05;;;;;;;23.92;15.03;;;;;;;17.55;73.30;98688.22;1787503;80;21302;-75
2021/05/02 11:44:34;;;;;;;23.22;17.42;;;;;;;17.52;73.37;98690.22;1787523;80;21290;-75
2021/05/02 11:47:10;;;;;;;19.70;14.80;;;;;;;17.53;73.48;98691.04;1784354;80;21163;-78